Time;durP1;ratioP1;P1;durP2;ratioP2;P2;SDS_P1;SDS_P2;PMS_P1;PMS_P2;Temp;Humidity;BMP_temperature;BMP_pressure;BME280_temperature;BME280_humidity;BME280_pressure;Samples;Min_cycle;Max_cycle;Signal;HPM_P1;HPM_P2
2022/06/05 00:02:14;;;;;;;6.05;3.70;;;;;;;-148.88;67.08;75736.59;5016421;28;20030;-76
2022/06/05 00:05:13;;;;;;;4.40;3.50;;;;;;;-148.88;68.25;75732.53;5019764;28;20036;-75
2022/06/05 00:08:02;;;;;;;5.65;3.95;;;;;;;-148.88;67.84;75742.69;5018871;28;20026;-75
2022/06/05 00:10:33;;;;;;;6.85;4.13;;;;;;;-148.88;66.95;75750.81;5016124;28;20510;-76
2022/06/05 00:13:19;;;;;;;10.48;4.03;;;;;;;-148.88;65.77;75752.84;5015344;28;20395;-76
2022/06/05 00:15:45;;;;;;;5.70;4.10;;;;;;;-148.88;65.99;75748.78;5016010;28;20026;-75
2022/06/05 00:18:11;;;;;;;6.43;3.95;;;;;;;-148.88;65.83;75748.78;5015636;28;20049;-76
2022/06/05 00:20:37;;;;;;;7.07;4.00;;;;;;;-148.88;65.39;75738.63;5014362;28;20064;-76
2022/06/05 00:23:02;;;;;;;6.28;3.75;;;;;;;-148.88;65.30;75726.44;5015537;28;20022;-76
2022/06/05 00:25:45;;;;;;;5.70;3.47;;;;;;;-148.88;65.08;75720.34;5014315;28;20084;-76
2022/06/05 00:28:28;;;;;;;6.07;4.28;;;;;;;-148.88;65.36;75716.28;5015692;28;20076;-75
2022/06/05 00:31:11;;;;;;;7.15;4.22;;;;;;;-148.88;65.37;75722.38;5015861;28;20388;-76
2022/06/05 00:33:40;;;;;;;7.07;4.18;;;;;;;-148.88;65.89;75720.34;5015703;28;20025;-76
2022/06/05 00:36:33;;;;;;;7.10;4.50;;;;;;;-148.88;65.28;75724.41;5015466;28;20026;-75
2022/06/05 00:39:27;;;;;;;5.93;4.30;;;;;;;-148.88;65.62;75726.44;5015386;28;20052;-76
2022/06/05 00:42:00;;;;;;;6.57;4.50;;;;;;;-148.88;66.06;75728.47;5020031;28;20018;-75
2022/06/05 00:44:29;;;;;;;7.30;5.10;;;;;;;-148.88;66.73;75734.56;5018126;28;20022;-75
2022/06/05 00:46:57;;;;;;;6.45;4.53;;;;;;;-148.88;67.09;75732.53;5015995;28;20247;-75
2022/06/05 00:49:29;;;;;;;6.38;4.25;;;;;;;-148.88;67.02;75742.69;5015080;28;20026;-76
2022/06/05 00:51:54;;;;;;;5.82;4.55;;;;;;;-148.88;66.27;75740.66;5015636;28;20034;-76
2022/06/05 00:54:19;;;;;;;6.45;4.57;;;;;;;-148.88;67.05;75746.75;5015085;28;20025;-76
2022/06/05 00:56:45;;;;;;;6.88;3.92;;;;;;;-148.88;67.49;75752.84;5014964;28;20036;-76
2022/06/05 00:59:12;;;;;;;7.75;4.47;;;;;;;-148.88;67.46;75754.88;5013573;28;20431;-75
2022/06/05 01:01:40;;;;;;;5.78;4.32;;;;;;;-148.88;67.41;75754.88;5014992;28;20018;-75
2022/06/05 01:04:05;;;;;;;6.65;4.20;;;;;;;-148.88;67.62;75756.91;5014665;28;20026;-76
2022/06/05 01:06:31;;;;;;;7.60;4.82;;;;;;;-148.88;68.23;75769.09;5013525;28;20032;-76
2022/06/05 01:08:56;;;;;;;6.57;4.35;;;;;;;-148.88;68.16;75781.28;5014951;28;20021;-76
2022/06/05 01:11:39;;;;;;;5.57;4.13;;;;;;;-148.88;69.09;75781.28;5014719;28;20038;-75
2022/06/05 01:14:28;;;;;;;7.60;4.53;;;;;;;-148.88;68.98;75791.44;5015209;28;20026;-76
2022/06/05 01:17:11;;;;;;;7.28;4.97;;;;;;;-148.88;69.73;75797.53;5014568;28;20553;-76
2022/06/05 01:19:57;;;;;;;6.03;4.30;;;;;;;-148.88;70.48;75809.72;5027563;23;20050;-74
2022/06/05 01:22:31;;;;;;;6.70;4.80;;;;;;;-148.88;70.68;75801.59;5014662;28;20030;-73
2022/06/05 01:25:11;;;;;;;7.43;5.07;;;;;;;-148.88;70.99;75817.84;4995811;28;20076;-74
2022/06/05 01:27:41;;;;;;;8.25;4.75;;;;;;;-148.88;71.26;75813.78;5019784;28;20075;-73
2022/06/05 01:30:15;;;;;;;7.93;5.28;;;;;;;-148.88;71.90;75819.88;5034267;28;20394;-74
2022/06/05 01:33:03;;;;;;;8.60;5.00;;;;;;;-148.88;71.41;75817.84;5016194;28;20036;-74
2022/06/05 01:35:45;;;;;;;7.90;4.95;;;;;;;-148.88;71.80;75821.91;5034085;28;20017;-74
2022/06/05 01:38:16;;;;;;;10.35;5.22;;;;;;;-148.88;72.31;75809.72;5016097;28;20029;-74
2022/06/05 01:44:26;;;;;;;8.13;4.97;;;;;;;-148.88;72.50;75830.03;5033891;28;20037;-74
2022/06/05 01:46:52;;;;;;;8.90;5.15;;;;;;;-148.88;73.15;75838.16;5033751;28;20021;-74
2022/06/05 01:49:32;;;;;;;7.25;4.97;;;;;;;-148.88;74.04;75836.13;5033678;28;20044;-74
2022/06/05 01:52:02;;;;;;;7.03;4.85;;;;;;;-148.88;73.39;75830.03;5033750;28;20017;-74
2022/06/05 01:54:40;;;;;;;6.35;4.78;;;;;;;-148.88;73.19;75830.03;5033761;28;20150;-73
2022/06/05 01:57:10;;;;;;;7.55;5.05;;;;;;;-148.88;73.58;75830.03;5033540;28;20057;-74
2022/06/05 01:59:38;;;;;;;7.43;5.40;;;;;;;-148.88;73.46;75832.06;5033606;28;20026;-74
2022/06/05 02:02:08;;;;;;;6.97;4.68;;;;;;;-148.88;73.89;75830.03;5015835;28;20025;-73
2022/06/05 02:04:42;;;;;;;7.00;5.03;;;;;;;-148.88;74.20;75834.09;5033500;28;20034;-73
2022/06/05 02:07:24;;;;;;;;;;;;;;;-148.88;74.34;75832.06;5016115;28;20025;-74
2022/06/05 02:09:55;;;;;;;7.25;5.13;;;;;;;-148.88;74.09;75828.00;5033774;28;19909;-73
2022/06/05 02:12:22;;;;;;;6.70;4.80;;;;;;;-148.88;73.94;75836.13;5033393;28;20430;-73
2022/06/05 02:14:47;;;;;;;8.02;5.00;;;;;;;-148.88;73.72;75836.13;5033359;28;20093;-73
2022/06/05 02:17:13;;;;;;;9.57;5.78;;;;;;;-148.88;73.63;75838.16;5033268;28;20014;-74
2022/06/05 02:19:39;;;;;;;8.88;5.75;;;;;;;-148.88;73.61;75838.16;5015406;28;20499;-74
2022/06/05 02:22:11;;;;;;;8.23;5.15;;;;;;;-148.88;73.82;75830.03;5033241;28;20103;-74
2022/06/05 02:24:36;;;;;;;7.35;5.20;;;;;;;-148.88;72.73;75830.03;5015531;28;20052;-74
2022/06/05 02:27:04;;;;;;;8.20;5.70;;;;;;;-148.88;73.31;75834.09;5033032;28;20047;-74
2022/06/05 02:33:19;;;;;;;8.80;6.25;;;;;;;-148.88;73.14;75819.88;5033121;28;20036;-74
2022/06/05 02:43:14;;;;;;;9.57;5.88;;;;;;;-148.88;73.72;75819.88;5033711;28;20116;-73
2022/06/05 02:55:44;;;;;;;7.90;5.93;;;;;;;-148.88;74.19;75807.69;5033188;28;20028;-74
2022/06/05 02:58:40;;;;;;;8.00;6.10;;;;;;;-148.88;74.22;75811.75;5032857;28;20393;-74
2022/06/05 03:03:49;;;;;;;8.82;6.28;;;;;;;-148.88;74.91;75809.72;5033055;28;20024;-74
2022/06/05 03:06:48;;;;;;;8.82;5.97;;;;;;;-148.88;74.90;75813.78;5032914;28;20029;-73
2022/06/05 03:15:57;;;;;;;8.93;5.80;;;;;;;-148.88;75.25;75823.94;5032936;28;20462;-74
2022/06/05 03:18:22;;;;;;;8.27;5.85;;;;;;;-148.88;75.23;75821.91;5032501;28;20048;-74
2022/06/05 03:24:44;;;;;;;9.88;6.40;;;;;;;-148.88;75.41;75811.75;5032804;28;20045;-74
2022/06/05 03:27:09;;;;;;;10.80;6.43;;;;;;;-148.88;75.50;75805.66;5032744;28;20390;-74
2022/06/05 03:29:35;;;;;;;11.00;6.32;;;;;;;-148.88;75.92;75805.66;5032561;28;20475;-74
2022/06/05 03:32:00;;;;;;;10.10;6.47;;;;;;;-148.88;76.07;75799.56;5032577;28;20029;-74
2022/06/05 03:41:09;;;;;;;9.77;6.30;;;;;;;-148.88;76.28;75787.38;5032683;28;20410;-74
2022/06/05 03:43:36;;;;;;;10.65;6.63;;;;;;;-148.88;76.39;75793.47;5032424;28;20021;-73
2022/06/05 03:46:04;;;;;;;9.18;6.15;;;;;;;-148.88;76.17;75781.28;5014738;28;20029;-74
2022/06/05 03:48:29;;;;;;;9.48;7.10;;;;;;;-148.88;76.50;75773.16;5035121;28;20021;-74
2022/06/05 03:50:54;;;;;;;9.15;6.43;;;;;;;-148.88;76.41;75777.22;5036229;28;20108;-74
2022/06/05 03:53:20;;;;;;;8.95;6.43;;;;;;;-148.88;76.34;75771.13;5036140;28;20032;-74
2022/06/05 04:02:28;;;;;;;9.73;6.30;;;;;;;-148.88;77.17;75760.97;5036011;28;20215;-74
2022/06/05 04:04:53;;;;;;;10.63;6.95;;;;;;;-148.88;77.21;75752.84;5035609;28;20553;-74
2022/06/05 04:07:19;;;;;;;8.85;6.53;;;;;;;-148.88;77.01;75744.72;5035780;28;20039;-74
2022/06/05 04:09:45;;;;;;;9.23;6.25;;;;;;;-148.88;76.89;75732.53;5035879;28;20096;-73
2022/06/05 04:12:10;;;;;;;8.77;6.45;;;;;;;-148.88;77.59;75732.53;5035857;28;20489;-73
2022/06/05 04:14:35;;;;;;;10.23;6.82;;;;;;;-148.88;77.02;75722.38;5035496;28;20014;-73
2022/06/05 04:17:00;;;;;;;10.32;6.55;;;;;;;-148.88;77.52;75718.31;5035337;28;20025;-74
2022/06/05 04:19:26;;;;;;;7.72;6.38;;;;;;;-148.88;77.36;75712.22;5035286;28;20037;-74
2022/06/05 04:21:51;;;;;;;11.45;6.72;;;;;;;-148.88;77.43;75710.19;5035326;28;20026;-74
2022/06/05 04:24:17;;;;;;;10.15;6.72;;;;;;;-148.88;77.14;75706.13;5035208;28;20029;-74
2022/06/05 04:33:25;;;;;;;10.00;6.78;;;;;;;-148.88;77.59;75667.53;5035774;28;20047;-74
2022/06/05 04:39:15;;;;;;;8.90;6.20;;;;;;;-148.88;77.78;75665.50;5035245;28;20052;-74
2022/06/05 04:41:41;;;;;;;9.63;6.15;;;;;;;-148.88;76.49;75659.41;5035188;28;20033;-74
2022/06/05 04:44:08;;;;;;;9.55;6.38;;;;;;;-148.88;76.64;75645.19;5034838;28;20021;-75
2022/06/05 04:46:34;;;;;;;9.05;6.40;;;;;;;-148.88;76.36;75639.09;5017062;28;20497;-73
2022/06/05 04:52:21;;;;;;;8.90;6.28;;;;;;;-148.88;76.61;75618.78;5035087;28;20040;-74
2022/06/05 04:54:47;;;;;;;9.40;6.32;;;;;;;-148.88;77.16;75608.63;5034766;28;20025;-73
2022/06/05 04:57:59;;;;;;;10.25;6.47;;;;;;;-148.88;76.21;75598.47;5034769;28;20474;-74
2022/06/05 05:00:24;;;;;;;8.02;6.15;;;;;;;-148.88;75.53;75594.44;5016914;28;20033;-73
2022/06/05 05:03:42;;;;;;;8.73;6.50;;;;;;;-148.88;75.92;75590.34;5034833;28;20018;-73
2022/06/05 05:07:03;;;;;;;8.93;6.43;;;;;;;-148.88;75.77;75588.34;5034581;28;20052;-74
2022/06/05 05:09:29;;;;;;;7.88;6.07;;;;;;;-148.88;76.11;75590.34;5016714;28;20028;-75
2022/06/05 05:11:54;;;;;;;9.57;6.18;;;;;;;-148.88;76.07;75586.31;5034445;28;20022;-75
2022/06/05 05:19:39;;;;;;;9.00;6.15;;;;;;;-148.88;77.61;75561.94;4373392;23;20055;-86
2022/06/05 05:22:04;;;;;;;7.80;6.07;;;;;;;-148.88;77.53;75557.88;4975939;28;20038;-86
2022/06/05 05:24:30;;;;;;;8.90;6.65;;;;;;;-148.88;77.30;75549.75;4975809;28;20061;-86
2022/06/05 05:26:55;;;;;;;8.63;6.00;;;;;;;-148.88;76.32;75549.75;4977100;28;20037;-86
2022/06/05 05:29:21;;;;;;;9.35;6.38;;;;;;;-148.88;76.12;75531.47;4975131;28;20030;-83
2022/06/05 05:31:46;;;;;;;7.07;5.53;;;;;;;-148.88;76.41;75525.38;4975492;28;20077;-85
2022/06/05 05:34:13;;;;;;;9.00;6.20;;;;;;;-148.88;75.90;75519.28;4999039;23;20057;-74
2022/06/05 05:36:40;;;;;;;8.43;6.43;;;;;;;-148.88;75.95;75509.13;4994649;28;20074;-74
2022/06/05 05:42:04;;;;;;;8.88;6.45;;;;;;;-148.88;74.85;75501.00;4995373;28;20120;-74
2022/06/05 05:44:45;;;;;;;8.68;5.75;;;;;;;-148.88;75.12;75486.78;4994506;28;20026;-76
2022/06/05 05:47:20;;;;;;;7.82;5.88;;;;;;;-148.88;75.91;75490.84;4993302;28;20490;-74
2022/06/05 05:49:46;;;;;;;9.50;6.20;;;;;;;-148.88;75.06;75492.88;4994414;28;20030;-75
2022/06/05 05:52:11;;;;;;;8.80;6.10;;;;;;;-148.88;75.82;75474.59;4994407;28;20037;-74
2022/06/05 05:54:38;;;;;;;7.07;5.85;;;;;;;-148.88;76.10;75476.63;4994560;28;20022;-76
2022/06/05 05:57:05;;;;;;;9.18;6.43;;;;;;;-148.88;75.48;75474.59;4994294;28;20109;-74
2022/06/05 05:59:30;;;;;;;8.23;6.07;;;;;;;-148.88;76.33;75460.38;4994230;28;20076;-73
2022/06/05 06:01:56;;;;;;;9.75;7.07;;;;;;;-148.88;75.81;75446.16;4994197;28;20395;-73
2022/06/05 06:04:21;;;;;;;10.05;6.00;;;;;;;-148.88;76.05;75427.88;4994237;28;20069;-73
2022/06/05 06:06:50;;;;;;;8.27;6.03;;;;;;;-148.88;73.83;75411.63;4994650;28;20026;-73
2022/06/05 06:09:17;;;;;;;10.15;6.30;;;;;;;-148.88;73.74;75399.44;4993997;28;20033;-73
2022/06/05 06:11:43;;;;;;;8.82;6.07;;;;;;;-148.88;74.49;75391.31;4993796;28;20030;-73
2022/06/05 06:14:09;;;;;;;8.65;5.72;;;;;;;-148.88;74.60;75379.13;4994017;28;20026;-73
2022/06/05 06:16:35;;;;;;;9.02;6.05;;;;;;;-148.88;74.39;75375.06;4994232;28;20490;-73
2022/06/05 06:19:01;;;;;;;7.97;5.93;;;;;;;-148.88;73.98;75366.94;4994115;28;20025;-73
2022/06/05 06:21:27;;;;;;;7.72;6.22;;;;;;;-148.88;74.46;75348.66;5009072;28;20018;-73
2022/06/05 06:23:52;;;;;;;7.25;5.30;;;;;;;-148.88;74.13;75338.50;4994171;28;20435;-73
2022/06/05 06:26:18;;;;;;;8.63;5.93;;;;;;;-148.88;73.39;75320.22;4993777;28;20031;-73
2022/06/05 06:28:43;;;;;;;7.65;5.47;;;;;;;-148.88;73.02;75310.06;4993748;28;20027;-73
2022/06/05 06:31:12;;;;;;;5.88;5.00;;;;;;;-148.88;71.88;75283.66;4993804;28;20026;-73
2022/06/05 06:33:38;;;;;;;9.18;5.47;;;;;;;-148.88;72.27;75281.66;4993627;28;20038;-73
2022/06/05 06:36:06;;;;;;;6.72;5.60;;;;;;;-148.88;72.77;75259.31;4993801;28;20030;-73
2022/06/05 06:38:32;;;;;;;6.45;5.57;;;;;;;-148.88;71.07;75253.22;4992483;28;20475;-73
2022/06/05 06:41:18;;;;;;;6.20;5.25;;;;;;;-148.88;70.12;75236.97;4993791;28;20488;-73
2022/06/05 06:43:45;;;;;;;8.32;5.22;;;;;;;-148.88;70.64;75216.66;4993723;28;20037;-73
2022/06/05 06:46:11;;;;;;;8.18;4.88;;;;;;;-148.88;69.28;75192.28;4993746;28;20033;-73
2022/06/05 06:48:37;;;;;;;7.60;5.18;;;;;;;-148.88;70.15;75186.19;5008695;28;20037;-73
2022/06/05 06:51:04;;;;;;;8.02;5.60;;;;;;;-148.88;67.99;75178.06;4993622;28;20104;-74
2022/06/05 06:53:31;;;;;;;6.57;5.38;;;;;;;-148.88;69.26;75147.59;4994085;28;20080;-74
2022/06/05 06:55:57;;;;;;;7.20;5.13;;;;;;;-148.88;67.67;75137.44;4992358;28;20022;-73
2022/06/05 06:58:22;;;;;;;5.82;4.70;;;;;;;-148.88;67.48;75127.28;5009413;28;20030;-73
2022/06/05 07:00:48;;;;;;;7.30;4.88;;;;;;;-148.88;66.56;75135.41;5009299;28;20037;-73
2022/06/05 07:03:13;;;;;;;7.03;4.78;;;;;;;-148.88;68.24;75109.00;5015223;28;20022;-73
2022/06/05 07:05:40;;;;;;;6.90;4.88;;;;;;;-148.88;66.71;75090.72;5016546;28;20062;-74
2022/06/05 07:08:07;;;;;;;6.70;5.10;;;;;;;-148.88;66.21;75078.56;5016184;28;20011;-74
2022/06/05 07:10:33;;;;;;;7.60;5.05;;;;;;;-148.88;65.15;75074.50;5013834;28;20438;-73
2022/06/05 07:12:58;;;;;;;9.88;5.68;;;;;;;-148.88;65.94;75058.25;4993703;28;20113;-75
2022/06/05 07:15:23;;;;;;;6.30;5.10;;;;;;;-148.88;66.61;75062.31;4993380;28;20468;-74
2022/06/05 07:17:49;;;;;;;8.38;5.05;;;;;;;-148.88;66.19;75037.94;4993299;28;20135;-74
2022/06/05 07:20:14;;;;;;;7.47;5.03;;;;;;;-148.88;65.61;75027.78;4993531;28;20034;-74
2022/06/05 07:22:40;;;;;;;6.78;4.90;;;;;;;-148.88;64.69;75017.63;4994941;28;20022;-73
2022/06/05 07:25:06;;;;;;;6.97;5.25;;;;;;;-148.88;64.78;75001.38;4996983;28;20105;-73
2022/06/05 07:27:31;;;;;;;6.88;4.90;;;;;;;-148.88;66.63;74974.97;4996924;28;20044;-73
2022/06/05 07:29:57;;;;;;;7.88;5.22;;;;;;;-148.88;66.09;74966.84;4996965;28;20400;-74
2022/06/05 07:32:22;;;;;;;5.55;4.63;;;;;;;-148.88;64.56;74956.69;4996959;28;20113;-73
2022/06/05 07:34:49;;;;;;;6.32;4.70;;;;;;;-148.88;63.90;74924.22;4996804;28;20033;-74
2022/06/05 07:37:15;;;;;;;6.30;5.00;;;;;;;-148.88;64.23;74932.34;4995467;28;20551;-75
2022/06/05 07:39:41;;;;;;;6.22;5.20;;;;;;;-148.88;64.25;74897.81;4996894;28;20094;-75
2022/06/05 07:42:07;;;;;;;5.80;5.20;;;;;;;-148.88;66.32;74889.69;4996744;28;20030;-75
2022/06/05 07:44:35;;;;;;;6.43;5.20;;;;;;;-148.88;65.86;74871.41;4996737;28;20388;-75
2022/06/05 07:47:04;;;;;;;6.75;5.13;;;;;;;-148.88;65.65;74855.16;4997001;28;20479;-75
2022/06/05 07:49:29;;;;;;;8.95;6.05;;;;;;;-148.88;63.73;74834.84;4997008;28;20471;-75
2022/06/05 07:54:38;;;;;;;8.38;5.65;;;;;;;-148.88;62.35;74818.59;4997104;28;20029;-75
2022/06/05 07:57:05;;;;;;;5.80;5.25;;;;;;;-148.88;62.78;74804.41;4995153;28;20026;-75
2022/06/05 07:59:34;;;;;;;7.40;5.93;;;;;;;-148.88;61.62;74792.22;4996714;28;20022;-75
2022/06/05 08:02:04;;;;;;;7.38;5.68;;;;;;;-148.88;61.87;74780.03;4996280;28;20022;-75
2022/06/05 08:04:29;;;;;;;7.22;6.13;;;;;;;-148.88;61.47;74782.06;4996281;28;20436;-75
2022/06/05 08:06:57;;;;;;;7.10;5.70;;;;;;;-148.88;62.25;74769.88;4996290;28;20475;-75
2022/06/05 08:09:23;;;;;;;7.47;5.60;;;;;;;-148.88;64.41;74767.84;4996194;28;20023;-75
2022/06/05 08:11:48;;;;;;;7.03;6.32;;;;;;;-148.88;63.16;74757.69;4994982;28;20109;-75
2022/06/05 08:14:14;;;;;;;8.00;5.70;;;;;;;-148.88;61.87;74753.63;4994910;28;20482;-75
2022/06/05 08:16:43;;;;;;;7.63;5.25;;;;;;;-148.88;62.45;74737.38;4996155;28;20054;-75
2022/06/05 08:19:09;;;;;;;6.82;5.55;;;;;;;-148.88;63.30;74733.31;4996000;28;20484;-75
2022/06/05 08:21:35;;;;;;;7.85;5.72;;;;;;;-148.88;60.66;74729.25;4996067;28;20030;-75
2022/06/05 08:24:00;;;;;;;6.53;5.30;;;;;;;-148.88;60.63;74713.00;4995979;28;20026;-75
2022/06/05 08:26:25;;;;;;;7.63;5.20;;;;;;;-148.88;61.63;74708.94;5011122;28;20030;-75
2022/06/05 08:28:50;;;;;;;9.82;5.45;;;;;;;-148.88;61.61;74704.88;5010986;28;20030;-75
2022/06/05 08:31:16;;;;;;;5.85;5.30;;;;;;;-148.88;61.32;74696.78;4995889;28;20053;-75
2022/06/05 08:33:42;;;;;;;6.45;5.00;;;;;;;-148.88;61.21;74696.78;4993951;28;20040;-75
2022/06/05 08:36:07;;;;;;;6.95;5.47;;;;;;;-148.88;62.92;74670.38;4994924;28;20065;-74
2022/06/05 08:41:30;;;;;;;8.07;5.25;;;;;;;-148.88;59.88;74664.28;4996358;28;20053;-74
2022/06/05 08:44:40;;;;;;;6.75;5.30;;;;;;;-148.88;60.42;74656.16;4995489;28;20057;-74
2022/06/05 08:47:15;;;;;;;6.47;5.03;;;;;;;-148.88;61.59;74629.75;4920418;29;20067;-74
2022/06/05 08:50:07;;;;;;;9.48;6.10;;;;;;;-148.88;59.83;74615.53;4988629;28;20125;-74
2022/06/05 08:52:59;;;;;;;7.85;5.65;;;;;;;-148.88;58.57;74619.59;4972827;28;20542;-74
2022/06/05 08:55:31;;;;;;;7.28;5.82;;;;;;;-148.88;59.51;74599.28;4987475;28;20518;-73
2022/06/05 08:58:03;;;;;;;8.35;5.35;;;;;;;-148.88;60.28;74597.25;4995643;28;20031;-74
2022/06/05 09:00:37;;;;;;;6.25;5.40;;;;;;;-148.88;59.91;74591.19;4995451;28;20050;-74
2022/06/05 09:03:10;;;;;;;7.00;5.63;;;;;;;-148.88;60.36;74593.22;4995564;28;20399;-74
2022/06/05 09:05:45;;;;;;;6.68;5.68;;;;;;;-148.88;58.81;74607.41;4993930;28;20487;-74
2022/06/05 09:08:18;;;;;;;7.28;5.72;;;;;;;-148.88;61.69;74587.13;4995009;28;20510;-73
2022/06/05 09:10:50;;;;;;;6.35;5.57;;;;;;;-148.88;59.45;74579.00;4995264;28;20033;-74
2022/06/05 09:13:29;;;;;;;7.40;5.80;;;;;;;-148.88;60.24;74583.06;4995090;28;20030;-74
2022/06/05 09:16:28;;;;;;;6.85;5.68;;;;;;;-148.88;58.04;74570.88;4993750;28;20057;-74
2022/06/05 09:19:40;;;;;;;6.97;5.50;;;;;;;-148.88;59.48;74583.06;4994827;28;20033;-74
2022/06/05 09:22:32;;;;;;;10.23;6.20;;;;;;;-148.88;58.81;74550.56;4995075;28;20022;-73
2022/06/05 09:25:03;;;;;;;6.70;6.10;;;;;;;-148.88;57.63;74542.44;4994925;28;20390;-74
2022/06/05 09:27:41;;;;;;;8.65;5.65;;;;;;;-148.88;56.82;74542.44;4994769;28;20031;-73
2022/06/05 09:30:30;;;;;;;7.57;6.10;;;;;;;-148.88;59.08;74507.91;4995112;28;20491;-74
2022/06/05 09:33:19;;;;;;;6.90;6.28;;;;;;;-148.88;57.20;74524.16;4995175;28;20089;-78
2022/06/05 09:35:50;;;;;;;6.05;5.43;;;;;;;-148.88;59.72;74481.53;4994190;28;20057;-74
2022/06/05 09:38:29;;;;;;;8.00;5.88;;;;;;;-148.88;56.86;74477.47;4995173;28;20487;-74
2022/06/05 09:41:07;;;;;;;6.28;5.65;;;;;;;-148.88;57.66;74501.81;4995627;28;20029;-73
2022/06/05 09:43:43;;;;;;;6.72;5.90;;;;;;;-148.88;57.95;74475.44;4995131;28;20368;-75
2022/06/05 09:46:23;;;;;;;6.85;5.68;;;;;;;-148.88;56.39;74440.91;5009907;28;20026;-75
2022/06/05 09:49:24;;;;;;;7.65;5.82;;;;;;;-148.88;56.67;74416.53;4995909;28;20471;-75
2022/06/05 09:51:49;;;;;;;6.28;5.68;;;;;;;-148.88;55.99;74375.94;4962113;28;20049;-76
2022/06/05 09:54:23;;;;;;;6.22;5.63;;;;;;;-148.88;53.94;74373.91;4995923;28;20029;-78
2022/06/05 10:00:07;;;;;;;6.28;5.57;;;;;;;-148.88;54.15;74331.25;4995349;28;20061;-77
2022/06/05 10:02:34;;;;;;;8.70;5.90;;;;;;;-148.88;54.31;74298.78;4994049;28;20022;-75
2022/06/05 10:05:01;;;;;;;7.22;5.40;;;;;;;-148.88;54.22;74284.56;4994549;28;20029;-76
2022/06/05 10:07:32;;;;;;;9.60;6.32;;;;;;;-148.88;52.24;74270.34;4993806;28;20093;-77
2022/06/05 10:10:03;;;;;;;5.88;5.05;;;;;;;-148.88;52.22;74237.88;5010064;28;20022;-76
2022/06/05 10:12:38;;;;;;;6.03;5.43;;;;;;;-148.88;51.45;74241.94;4995291;28;20076;-75
2022/06/05 10:15:16;;;;;;;8.07;5.80;;;;;;;-148.88;50.75;74272.38;4994781;28;20505;-75
2022/06/05 10:18:04;;;;;;;7.10;5.90;;;;;;;-148.88;51.24;74286.59;4995063;28;20026;-76
2022/06/05 10:20:54;;;;;;;6.90;6.07;;;;;;;-148.88;53.08;74294.72;5009417;28;20026;-75
2022/06/05 10:23:19;;;;;;;6.65;5.88;;;;;;;-148.88;53.48;74286.59;5009664;28;20078;-75
2022/06/05 10:25:51;;;;;;;7.60;5.95;;;;;;;-148.88;54.34;74302.84;4992765;28;20124;-75
2022/06/05 10:28:22;;;;;;;6.72;6.03;;;;;;;-148.88;52.98;74345.47;4996243;28;20033;-75
2022/06/05 10:30:59;;;;;;;7.47;5.60;;;;;;;-148.88;54.99;74365.78;4987755;28;20033;-75
2022/06/05 10:33:39;;;;;;;6.70;6.00;;;;;;;-148.88;56.25;74386.09;4993599;28;20034;-75
2022/06/05 10:36:29;;;;;;;7.13;6.05;;;;;;;-148.88;56.42;74384.06;4994365;28;20030;-75
2022/06/05 10:39:11;;;;;;;6.57;5.90;;;;;;;-148.88;54.25;74363.75;4994293;28;20029;-75
2022/06/05 10:41:59;;;;;;;7.97;5.45;;;;;;;-148.88;53.52;74375.94;4994522;28;20447;-75
2022/06/05 10:44:36;;;;;;;7.43;6.10;;;;;;;-148.88;55.06;74367.81;4995229;28;20037;-75
2022/06/05 10:47:17;;;;;;;6.38;5.60;;;;;;;-148.88;54.82;74357.66;5009888;28;20041;-75
2022/06/05 10:49:55;;;;;;;6.68;5.95;;;;;;;-148.88;54.93;74365.78;4994381;28;20480;-75
2022/06/05 10:52:31;;;;;;;8.77;5.85;;;;;;;-148.88;56.34;74363.75;4994374;28;20030;-75
2022/06/05 10:55:18;;;;;;;7.00;5.60;;;;;;;-148.88;55.01;74398.28;4995058;28;20526;-75
2022/06/05 10:58:07;;;;;;;6.70;6.00;;;;;;;-148.88;55.94;74392.19;5013163;28;20061;-75
2022/06/05 11:00:50;;;;;;;7.63;6.07;;;;;;;-148.88;55.10;74375.94;4998674;28;20030;-75
2022/06/05 11:03:25;;;;;;;;;;;;;;;-148.88;55.93;74400.31;4998654;28;20027;-75
2022/06/05 11:06:27;;;;;;;7.85;6.30;;;;;;;-148.88;57.24;74420.59;4998046;28;19910;-75
2022/06/05 11:09:27;;;;;;;7.43;6.55;;;;;;;-148.88;59.07;74428.72;4967118;28;20042;-75
2022/06/05 11:14:59;;;;;;;7.53;6.13;;;;;;;-148.88;58.55;74447.00;4997950;28;20036;-75
2022/06/05 11:17:42;;;;;;;7.90;6.63;;;;;;;-148.88;58.04;74453.09;4998283;28;20080;-75
2022/06/05 11:20:18;;;;;;;7.47;6.53;;;;;;;-148.88;59.20;74442.94;5012911;28;20026;-75
2022/06/05 11:22:54;;;;;;;7.55;6.70;;;;;;;-148.88;56.50;74438.88;4997929;28;20407;-75
2022/06/05 11:26:00;;;;;;;6.93;6.22;;;;;;;-148.88;57.26;74451.06;5013161;28;20026;-75
2022/06/05 11:28:25;;;;;;;7.30;6.25;;;;;;;-148.88;56.42;74457.16;5012610;28;20084;-75
2022/06/05 11:30:59;;;;;;;8.00;6.67;;;;;;;-148.88;58.38;74469.34;4997692;28;20026;-75
2022/06/05 11:33:28;;;;;;;6.97;6.28;;;;;;;-148.88;60.06;74436.84;5016477;23;20080;-91
2022/06/05 11:36:14;;;;;;;7.20;6.50;;;;;;;-148.88;59.96;74453.09;4996845;28;20543;-89
2022/06/05 11:38:59;;;;;;;7.38;6.47;;;;;;;-148.88;57.55;74453.09;4996864;28;20044;-88
2022/06/05 11:41:39;;;;;;;7.40;6.60;;;;;;;-148.88;59.42;74455.13;4996650;28;20543;-87
2022/06/05 11:44:22;;;;;;;7.15;6.07;;;;;;;-148.88;59.19;74453.09;4996146;28;20054;-87
2022/06/05 11:46:56;;;;;;;7.00;6.38;;;;;;;-148.88;59.04;74449.03;4996433;28;20429;-86
2022/06/05 11:49:28;;;;;;;7.72;6.20;;;;;;;-148.88;60.56;74442.94;4996716;28;20445;-85
2022/06/05 11:52:05;;;;;;;7.38;6.68;;;;;;;-148.88;60.39;74436.84;4996404;28;20485;-88
2022/06/05 11:54:45;;;;;;;9.45;6.60;;;;;;;-148.88;60.56;74424.66;4996244;28;20034;-87
2022/06/05 11:57:18;;;;;;;8.18;6.65;;;;;;;-148.88;61.47;74426.69;4996365;28;20022;-87
2022/06/05 11:59:55;;;;;;;13.00;7.00;;;;;;;-148.88;61.75;74428.72;4996503;28;20022;-88
2022/06/05 12:02:33;;;;;;;7.10;6.40;;;;;;;-148.88;61.15;74438.88;4995825;28;20476;-86
2022/06/05 12:05:36;;;;;;;8.65;6.70;;;;;;;-148.88;61.62;74449.03;4994678;28;20042;-87
2022/06/05 12:08:07;;;;;;;6.95;6.20;;;;;;;-148.88;61.55;74447.00;4995665;28;20030;-86
2022/06/05 12:10:38;;;;;;;7.55;6.68;;;;;;;-148.88;60.47;74455.13;4995693;28;20080;-86
2022/06/05 12:13:22;;;;;;;6.97;6.28;;;;;;;-148.88;61.67;74428.72;4995667;28;20026;-87
2022/06/05 12:16:10;;;;;;;7.03;6.32;;;;;;;-148.88;62.71;74432.78;4995546;28;20488;-86
2022/06/05 12:18:43;;;;;;;8.32;6.57;;;;;;;-148.88;61.98;74428.72;4996060;28;20034;-85
2022/06/05 12:21:33;;;;;;;9.05;6.97;;;;;;;-148.88;63.05;74432.78;4995854;28;20026;-86
2022/06/05 12:24:05;;;;;;;8.02;6.40;;;;;;;-148.88;62.36;74442.94;4995857;28;20026;-84
2022/06/05 12:26:45;;;;;;;7.70;6.90;;;;;;;-148.88;63.87;74457.16;4995798;28;20113;-85
2022/06/05 12:29:21;;;;;;;7.35;6.57;;;;;;;-148.88;64.97;74483.56;4994668;28;20101;-84
2022/06/05 12:31:53;;;;;;;8.20;7.40;;;;;;;-148.88;69.19;74497.78;4995418;28;20026;-85
2022/06/05 12:34:26;;;;;;;7.97;7.10;;;;;;;-148.88;70.44;74514.00;4996228;28;20121;-84
2022/06/05 12:37:13;;;;;;;9.35;7.03;;;;;;;-148.88;71.15;74526.19;4995595;28;20500;-84
2022/06/05 12:39:46;;;;;;;9.77;7.82;;;;;;;-148.88;71.37;74538.38;4996996;28;20030;-85
2022/06/05 12:42:31;;;;;;;8.80;7.53;;;;;;;-148.88;72.58;74542.44;4995290;28;20120;-85
2022/06/05 12:45:01;;;;;;;8.82;7.78;;;;;;;-148.88;72.07;74536.34;4995789;28;20096;-84
2022/06/05 12:47:35;;;;;;;9.20;8.10;;;;;;;-148.88;73.60;74538.38;4995965;28;20037;-84
2022/06/05 12:50:19;;;;;;;9.52;7.63;;;;;;;-148.88;75.20;74546.50;4995690;28;20041;-86
2022/06/05 12:52:55;;;;;;;8.55;7.57;;;;;;;-148.88;74.39;74554.63;4995961;28;20026;-84
2022/06/05 12:55:37;;;;;;;10.63;8.55;;;;;;;-148.88;76.74;74548.53;4996034;28;20033;-84
2022/06/05 12:58:17;;;;;;;11.57;8.02;;;;;;;-148.88;77.19;74556.66;4994993;28;20026;-84
2022/06/05 13:00:52;;;;;;;9.38;8.38;;;;;;;-148.88;77.86;74550.56;4993556;28;20087;-84
2022/06/05 13:03:26;;;;;;;9.52;8.52;;;;;;;-148.88;77.26;74564.78;4994756;28;20058;-85
2022/06/05 13:06:25;;;;;;;9.68;8.13;;;;;;;-148.88;78.47;74566.81;4994906;28;20026;-85
2022/06/05 13:08:55;;;;;;;9.70;8.70;;;;;;;-148.88;79.71;74566.81;4994973;28;20026;-85
2022/06/05 13:11:41;;;;;;;11.82;9.25;;;;;;;-148.88;77.43;74574.94;4994627;28;20480;-84